createdAt,value
2023-04-16T00:00:26.565Z,14.45
2023-04-16T00:03:16.821Z,15.32
2023-04-16T00:06:05.586Z,11.35
2023-04-16T00:08:53.068Z,15.48
2023-04-16T00:12:05.428Z,14.30
2023-04-16T00:15:16.680Z,13.95
2023-04-16T00:18:04.322Z,16.25
2023-04-16T00:20:55.685Z,14.70
2023-04-16T00:23:48.483Z,11.98
2023-04-16T00:26:58.242Z,14.18
2023-04-16T00:29:49.727Z,13.05
2023-04-16T00:32:44.552Z,14.73
2023-04-16T00:35:32.439Z,13.85
2023-04-16T00:38:32.782Z,7.50
2023-04-16T00:41:23.761Z,14.07
2023-04-16T00:44:25.403Z,14.07
2023-04-16T00:47:30.287Z,11.25
2023-04-16T00:50:17.968Z,14.73
2023-04-16T00:53:05.713Z,10.63
2023-04-16T00:55:56.221Z,11.82
2023-04-16T00:58:43.995Z,16.08
2023-04-16T01:01:36.279Z,13.23
2023-04-16T01:04:24.851Z,11.50
2023-04-16T01:07:12.981Z,11.63
2023-04-16T01:10:05.013Z,15.52
2023-04-16T01:13:14.935Z,13.32
2023-04-16T01:16:12.408Z,13.07
2023-04-16T01:19:08.111Z,20.65
2023-04-16T01:22:10.245Z,8.55
2023-04-16T01:24:59.079Z,16.77
2023-04-16T01:28:01.487Z,12.38
2023-04-16T01:30:52.092Z,14.38
2023-04-16T01:33:39.458Z,15.90
2023-04-16T01:36:28.152Z,12.52
2023-04-16T01:39:19.669Z,11.98
2023-04-16T01:42:08.024Z,9.38
2023-04-16T01:44:58.593Z,8.95
2023-04-16T01:47:50.085Z,16.75
2023-04-16T01:50:38.049Z,11.27
2023-04-16T01:53:36.551Z,12.68
2023-04-16T01:56:26.512Z,17.90
2023-04-16T02:00:04.517Z,11.80
2023-04-16T02:02:41.132Z,14.93
2023-04-16T02:05:35.843Z,10.75
2023-04-16T02:08:29.246Z,10.60
2023-04-16T02:11:19.881Z,11.65
2023-04-16T02:14:11.795Z,16.02
2023-04-16T02:17:11.874Z,11.00
2023-04-16T02:20:03.554Z,8.88
2023-04-16T02:22:52.999Z,9.32
2023-04-16T02:25:48.212Z,11.80
2023-04-16T02:28:37.854Z,14.98
2023-04-16T02:31:28.997Z,10.88
2023-04-16T02:34:21.877Z,14.43
2023-04-16T02:37:16.168Z,12.40
2023-04-16T02:40:05.031Z,14.07
2023-04-16T02:43:04.495Z,12.80
2023-04-16T02:45:52.590Z,14.95
2023-04-16T02:49:12.310Z,13.63
2023-04-16T02:55:09.950Z,15.82
2023-04-16T02:58:05.964Z,13.43
2023-04-16T03:00:55.225Z,15.25
2023-04-16T03:03:42.957Z,16.73
2023-04-16T03:06:32.466Z,16.45
2023-04-16T03:09:20.005Z,13.45
2023-04-16T03:12:15.572Z,20.60
2023-04-16T03:15:03.395Z,23.92
2023-04-16T03:17:51.301Z,15.95
2023-04-16T03:20:52.715Z,14.10
2023-04-16T03:23:46.492Z,17.02
2023-04-16T03:26:39.330Z,22.52
2023-04-16T03:32:15.878Z,21.73
2023-04-16T03:35:14.637Z,20.83
2023-04-16T03:38:02.464Z,19.25
2023-04-16T03:40:55.721Z,19.27
2023-04-16T03:43:43.651Z,18.02
2023-04-16T03:46:32.325Z,17.70
2023-04-16T03:49:25.151Z,20.58
2023-04-16T03:52:16.028Z,30.85
2023-04-16T03:55:04.401Z,25.10
2023-04-16T03:57:57.832Z,28.45
2023-04-16T04:00:45.978Z,23.80
2023-04-16T04:03:33.357Z,27.88
2023-04-16T04:06:23.032Z,25.00
2023-04-16T04:09:12.707Z,30.17
2023-04-16T04:12:04.100Z,28.75
2023-04-16T04:14:53.094Z,28.42
2023-04-16T04:17:41.335Z,26.25
2023-04-16T04:20:29.895Z,25.52
2023-04-16T04:23:17.622Z,31.77
2023-04-16T04:26:15.634Z,31.83
2023-04-16T04:29:07.443Z,26.65
2023-04-16T04:31:59.374Z,29.10
2023-04-16T04:34:49.443Z,22.85
2023-04-16T04:37:43.324Z,32.78
2023-04-16T04:40:31.050Z,20.27
2023-04-16T04:43:20.245Z,26.33
2023-04-16T04:46:20.517Z,27.95
2023-04-16T04:49:28.049Z,26.63
2023-04-16T04:52:17.870Z,30.08
2023-04-16T04:55:06.380Z,26.48
2023-04-16T04:57:53.889Z,33.85
2023-04-16T05:00:44.744Z,26.75
2023-04-16T05:03:36.744Z,24.80
2023-04-16T05:06:40.532Z,29.02
2023-04-16T05:09:27.772Z,25.67
2023-04-16T05:12:16.635Z,23.73
2023-04-16T05:15:04.694Z,20.63
2023-04-16T05:17:56.446Z,23.02
2023-04-16T05:20:56.450Z,26.20
2023-04-16T05:23:48.838Z,24.52
2023-04-16T05:26:38.681Z,31.00
2023-04-16T05:29:29.085Z,22.70
2023-04-16T05:32:17.249Z,26.90
2023-04-16T05:35:25.278Z,25.45
2023-04-16T05:38:23.430Z,23.60
2023-04-16T05:41:12.869Z,22.73
2023-04-16T05:44:01.703Z,29.25
2023-04-16T05:47:04.165Z,22.60
2023-04-16T05:49:51.731Z,28.05
2023-04-16T05:52:40.346Z,27.60
2023-04-16T05:55:36.487Z,23.48
2023-04-16T05:58:40.673Z,27.35
2023-04-16T06:04:18.135Z,30.67
2023-04-16T06:07:05.823Z,32.20
2023-04-16T06:10:17.777Z,33.30
2023-04-16T06:13:14.301Z,26.20
2023-04-16T06:16:03.079Z,27.65
2023-04-16T06:18:55.781Z,24.00
2023-04-16T06:24:47.349Z,25.20
2023-04-16T06:27:35.512Z,24.98
2023-04-16T06:30:31.278Z,28.13
2023-04-16T06:33:27.928Z,28.92
2023-04-16T06:36:17.424Z,28.38
2023-04-16T06:39:26.984Z,29.60
2023-04-16T06:42:17.937Z,28.42
2023-04-16T06:45:09.539Z,22.10
2023-04-16T06:51:26.824Z,22.15
2023-04-16T06:54:14.958Z,26.88
2023-04-16T06:57:07.571Z,34.25
2023-04-16T06:59:55.049Z,31.65
2023-04-16T07:02:42.361Z,28.63
2023-04-16T07:05:37.773Z,25.40
2023-04-16T07:08:28.675Z,30.02
2023-04-16T07:11:19.816Z,29.83
2023-04-16T07:14:09.879Z,26.23
2023-04-16T07:17:05.172Z,28.65
2023-04-16T07:19:58.874Z,24.17
2023-04-16T07:23:01.882Z,31.67
2023-04-16T07:25:57.288Z,27.73
2023-04-16T07:28:47.758Z,25.08
2023-04-16T07:31:35.885Z,19.60
2023-04-16T07:34:23.674Z,22.77
2023-04-16T07:37:11.625Z,20.42
2023-04-16T07:40:01.518Z,23.95
2023-04-16T07:42:53.642Z,25.13
2023-04-16T07:45:45.949Z,26.83
2023-04-16T07:49:11.226Z,25.25
2023-04-16T07:51:59.180Z,22.90
2023-04-16T07:55:07.855Z,41.67
2023-04-16T07:57:59.812Z,21.30
2023-04-16T08:01:16.367Z,20.08
2023-04-16T08:05:03.253Z,19.83
2023-04-16T08:07:54.021Z,22.52
2023-04-16T08:10:45.986Z,21.65
2023-04-16T08:14:04.590Z,21.90
2023-04-16T08:16:55.595Z,27.30
2023-04-16T08:19:46.379Z,21.55
2023-04-16T08:22:34.536Z,22.00
2023-04-16T08:25:27.714Z,23.42
2023-04-16T08:28:19.090Z,27.20
2023-04-16T08:31:08.033Z,20.35
2023-04-16T08:33:59.029Z,20.25
2023-04-16T08:37:10.187Z,23.38
2023-04-16T08:40:01.782Z,23.35
2023-04-16T08:43:01.991Z,21.85
2023-04-16T08:46:01.042Z,25.92
2023-04-16T08:49:01.782Z,15.95
2023-04-16T08:52:14.709Z,24.50
2023-04-16T08:55:06.430Z,19.55
2023-04-16T08:58:09.903Z,18.13
2023-04-16T09:01:08.697Z,18.95
2023-04-16T09:04:32.269Z,18.05
2023-04-16T09:10:44.195Z,17.92
2023-04-16T09:13:41.216Z,20.75
2023-04-16T09:16:34.005Z,16.88
2023-04-16T09:19:21.454Z,18.92
2023-04-16T09:22:12.702Z,19.98
2023-04-16T09:25:00.464Z,21.73
2023-04-16T09:27:50.294Z,21.15
2023-04-16T09:30:38.899Z,17.58
2023-04-16T09:33:34.505Z,21.98
2023-04-16T09:36:35.480Z,19.52
2023-04-16T09:39:27.945Z,18.48
2023-04-16T09:45:16.534Z,18.77
2023-04-16T09:48:06.044Z,20.55
2023-04-16T09:50:59.116Z,17.17
2023-04-16T09:53:48.653Z,19.90
2023-04-16T09:57:07.765Z,17.23
2023-04-16T10:00:02.986Z,19.63
2023-04-16T10:02:51.001Z,19.23
2023-04-16T10:05:38.638Z,18.60
2023-04-16T10:08:30.642Z,20.55
2023-04-16T10:11:19.717Z,18.90
2023-04-16T10:17:13.347Z,20.95
2023-04-16T10:20:21.099Z,19.08
2023-04-16T10:23:38.748Z,19.75
2023-04-16T10:26:33.927Z,18.02
2023-04-16T10:29:41.160Z,15.50
2023-04-16T10:32:31.496Z,22.95
2023-04-16T10:35:33.345Z,19.45
2023-04-16T10:39:41.549Z,20.05
2023-04-16T10:42:42.571Z,17.77
2023-04-16T10:45:41.174Z,20.30
2023-04-16T10:49:39.178Z,16.85
2023-04-16T10:52:37.853Z,21.98
2023-04-16T10:55:36.022Z,21.13
2023-04-16T10:58:57.060Z,19.60
2023-04-16T11:01:52.906Z,21.35
2023-04-16T11:04:45.920Z,28.23
2023-04-16T11:07:53.367Z,26.75
2023-04-16T11:10:43.126Z,18.60
2023-04-16T11:13:58.280Z,23.25
2023-04-16T11:16:50.285Z,26.25
2023-04-16T11:20:26.082Z,25.63
2023-04-16T11:23:26.472Z,27.48
2023-04-16T11:26:24.628Z,24.95
2023-04-16T11:29:26.102Z,23.40
2023-04-16T11:32:22.807Z,26.25
2023-04-16T11:35:16.323Z,23.75
2023-04-16T11:38:06.678Z,28.08
2023-04-16T11:41:11.720Z,24.98
2023-04-16T11:43:59.397Z,21.75
2023-04-16T11:46:46.832Z,21.00
2023-04-16T11:49:47.978Z,26.75
2023-04-16T11:52:45.870Z,26.13
2023-04-16T11:55:48.934Z,29.75
2023-04-16T11:58:37.587Z,27.98
2023-04-16T12:01:34.935Z,27.23
2023-04-16T12:04:38.641Z,22.42
2023-04-16T12:07:58.651Z,24.42
2023-04-16T12:11:51.705Z,21.27
2023-04-16T12:17:54.614Z,22.77
2023-04-16T12:20:50.806Z,22.95
2023-04-16T12:24:07.845Z,22.13
2023-04-16T12:27:07.260Z,14.68
2023-04-16T12:30:05.715Z,19.83
2023-04-16T12:33:13.165Z,17.23
2023-04-16T12:36:03.677Z,21.60
2023-04-16T12:38:51.184Z,21.75
2023-04-16T12:41:41.784Z,19.45
2023-04-16T12:44:29.891Z,19.05
2023-04-16T12:47:18.212Z,20.55
2023-04-16T12:50:07.331Z,19.45
2023-04-16T12:53:01.845Z,17.17
2023-04-16T12:55:57.905Z,21.30
2023-04-16T12:58:47.674Z,17.73
2023-04-16T13:01:37.352Z,17.52
2023-04-16T13:04:31.592Z,20.27
2023-04-16T13:07:28.209Z,16.17
2023-04-16T13:10:34.982Z,21.35
2023-04-16T13:13:54.095Z,16.33
2023-04-16T13:16:43.952Z,16.90
2023-04-16T13:19:38.878Z,15.05
2023-04-16T13:22:37.967Z,15.77
2023-04-16T13:25:55.628Z,14.18
2023-04-16T13:29:04.954Z,16.92
2023-04-16T13:31:55.580Z,17.58
2023-04-16T13:34:43.892Z,17.75
2023-04-16T13:38:17.383Z,16.27
2023-04-16T13:41:28.244Z,16.00
2023-04-16T13:45:13.923Z,17.05
2023-04-16T13:48:10.005Z,22.92
2023-04-16T13:51:03.056Z,17.23
2023-04-16T13:53:51.856Z,14.07
2023-04-16T13:57:03.945Z,16.90
2023-04-16T13:59:52.628Z,17.77
2023-04-16T14:02:48.488Z,15.95
2023-04-16T14:05:39.258Z,16.75
2023-04-16T14:08:32.836Z,19.13
2023-04-16T14:11:35.104Z,19.00
2023-04-16T14:14:54.288Z,20.75
2023-04-16T14:17:52.647Z,23.10
2023-04-16T14:20:53.999Z,24.38
2023-04-16T14:23:51.396Z,20.98
2023-04-16T14:26:40.950Z,18.33
2023-04-16T14:30:00.211Z,21.63
2023-04-16T14:33:00.328Z,24.33
2023-04-16T14:36:34.846Z,25.17
2023-04-16T14:39:44.683Z,17.27
2023-04-16T14:42:32.523Z,17.83
2023-04-16T14:45:20.073Z,20.50
2023-04-16T14:48:07.551Z,16.77
2023-04-16T14:50:55.191Z,17.88
2023-04-16T14:54:01.903Z,19.23
2023-04-16T14:56:53.934Z,19.75
2023-04-16T15:00:20.817Z,19.85
2023-04-16T15:03:27.133Z,20.48
2023-04-16T15:06:22.825Z,18.83
2023-04-16T15:09:32.876Z,19.42
2023-04-16T15:12:34.745Z,22.70
2023-04-16T15:15:27.922Z,20.42
2023-04-16T15:18:17.271Z,23.08
2023-04-16T15:24:49.830Z,22.50
2023-04-16T15:28:22.228Z,23.63
2023-04-16T15:31:13.162Z,23.30
2023-04-16T15:34:00.877Z,23.92
2023-04-16T15:36:48.312Z,25.70
2023-04-16T15:39:35.588Z,22.80
2023-04-16T15:42:23.676Z,22.70
2023-04-16T15:45:12.692Z,21.00
2023-04-16T15:48:00.313Z,24.88
2023-04-16T15:50:48.290Z,24.63
2023-04-16T15:53:36.289Z,22.67
2023-04-16T15:57:45.017Z,26.65
2023-04-16T16:08:14.000Z,23.42
2023-04-16T16:11:45.002Z,21.60
2023-04-16T16:18:05.887Z,23.92
2023-04-16T16:20:58.586Z,21.77
2023-04-16T16:30:20.168Z,24.30
2023-04-16T16:33:24.460Z,24.25
2023-04-16T16:36:17.531Z,20.15
2023-04-16T16:39:44.378Z,25.60
2023-04-16T16:42:40.945Z,21.42
2023-04-16T16:46:34.762Z,24.23
2023-04-16T16:49:45.719Z,23.40
2023-04-16T16:52:39.333Z,21.98
2023-04-16T16:56:16.376Z,22.33
2023-04-16T16:59:34.393Z,24.63
2023-04-16T17:02:36.228Z,27.83
2023-04-16T17:06:16.746Z,26.20
2023-04-16T17:09:05.701Z,28.08
2023-04-16T17:11:57.270Z,25.58
2023-04-16T17:14:50.517Z,28.05
2023-04-16T17:17:38.895Z,27.92
2023-04-16T17:20:35.349Z,26.50
2023-04-16T17:23:30.038Z,30.63
2023-04-16T17:26:20.545Z,25.17
2023-04-16T17:29:48.080Z,30.63
2023-04-16T17:32:35.913Z,25.92
2023-04-16T17:36:23.680Z,23.33
2023-04-16T17:39:12.597Z,25.27
2023-04-16T17:42:03.417Z,18.75
2023-04-16T17:44:57.101Z,26.58
2023-04-16T17:47:44.596Z,26.40
2023-04-16T17:50:42.556Z,23.15
2023-04-16T17:57:49.051Z,23.30
2023-04-16T18:00:39.665Z,27.83
2023-04-16T18:03:39.779Z,30.67
2023-04-16T18:09:47.129Z,27.65
2023-04-16T18:12:37.461Z,29.65
2023-04-16T18:15:49.883Z,26.38
2023-04-16T18:18:40.122Z,27.83
2023-04-16T18:21:48.808Z,25.83
2023-04-16T18:24:41.917Z,29.40
2023-04-16T18:27:59.378Z,31.77
2023-04-16T18:31:04.912Z,33.30
2023-04-16T18:34:21.814Z,30.50
2023-04-16T18:37:28.241Z,28.40
2023-04-16T18:40:23.418Z,32.35
2023-04-16T18:43:11.110Z,27.85
2023-04-16T18:49:38.415Z,33.25
2023-04-16T18:52:29.093Z,33.17
2023-04-16T18:55:17.918Z,34.63
2023-04-16T18:58:14.444Z,26.92
2023-04-16T19:01:02.211Z,34.30
2023-04-16T19:03:52.737Z,30.80
2023-04-16T19:06:40.928Z,32.95
2023-04-16T19:09:38.097Z,32.97
2023-04-16T19:12:25.683Z,35.00
2023-04-16T19:15:49.035Z,31.40
2023-04-16T19:18:40.257Z,36.67
2023-04-16T19:21:49.864Z,32.95
2023-04-16T19:24:44.849Z,38.53
2023-04-16T19:27:42.425Z,37.45
2023-04-16T19:30:30.318Z,43.30
2023-04-16T19:33:51.049Z,40.83
2023-04-16T19:37:15.316Z,37.00
2023-04-16T19:43:16.052Z,39.05
2023-04-16T19:46:23.002Z,42.33
2023-04-16T19:49:10.973Z,43.65
2023-04-16T19:51:59.536Z,38.25
2023-04-16T19:54:48.030Z,35.83
2023-04-16T19:57:37.290Z,35.70
2023-04-16T20:00:34.026Z,36.97
2023-04-16T20:03:21.758Z,31.50
2023-04-16T20:06:14.079Z,31.63
2023-04-16T20:09:14.108Z,33.60
2023-04-16T20:12:02.425Z,30.38
2023-04-16T20:14:51.935Z,29.48
2023-04-16T20:17:39.682Z,27.67
2023-04-16T20:20:27.547Z,35.05
2023-04-16T20:23:14.960Z,26.77
2023-04-16T20:26:02.859Z,27.58
2023-04-16T20:28:50.348Z,32.70
2023-04-16T20:31:42.470Z,37.65
2023-04-16T20:34:29.616Z,34.53
2023-04-16T20:37:21.874Z,28.50
2023-04-16T20:40:10.742Z,30.67
2023-04-16T20:43:29.807Z,34.40
2023-04-16T20:46:17.831Z,33.53
2023-04-16T20:49:07.786Z,36.25
2023-04-16T20:51:55.759Z,37.78
2023-04-16T20:54:43.643Z,35.20
2023-04-16T20:57:35.126Z,41.03
2023-04-16T21:00:31.471Z,38.35
2023-04-16T21:03:19.473Z,40.03
2023-04-16T21:06:14.490Z,43.92
2023-04-16T21:09:23.392Z,35.92
2023-04-16T21:12:15.369Z,38.70
2023-04-16T21:15:03.761Z,40.30
2023-04-16T21:17:51.660Z,38.80
2023-04-16T21:20:40.531Z,38.58
2023-04-16T21:23:34.734Z,33.55
2023-04-16T21:26:27.599Z,34.00
2023-04-16T21:29:15.455Z,31.80
2023-04-16T21:32:04.080Z,32.15
2023-04-16T21:34:52.297Z,37.13
2023-04-16T21:37:40.141Z,42.85
2023-04-16T21:40:28.868Z,33.80
2023-04-16T21:43:16.314Z,41.72
2023-04-16T21:46:08.862Z,48.13
2023-04-16T21:48:56.367Z,45.08
2023-04-16T21:51:47.149Z,39.47
2023-04-16T21:54:38.003Z,42.60
2023-04-16T21:57:28.926Z,44.90
2023-04-16T22:00:18.544Z,45.13
2023-04-16T22:03:06.970Z,44.80
2023-04-16T22:05:58.396Z,43.78
2023-04-16T22:08:46.346Z,47.28
2023-04-16T22:11:34.100Z,49.35
2023-04-16T22:14:23.173Z,53.33
2023-04-16T22:17:15.128Z,49.47
2023-04-16T22:20:23.163Z,51.42
2023-04-16T22:23:13.114Z,51.13
2023-04-16T22:26:02.712Z,47.35
2023-04-16T22:28:50.871Z,56.60
2023-04-16T22:31:45.198Z,53.25
2023-04-16T22:34:34.287Z,51.15
2023-04-16T22:37:24.002Z,56.47
2023-04-16T22:40:12.286Z,51.72
2023-04-16T22:43:00.525Z,54.20
2023-04-16T22:45:48.223Z,52.85
2023-04-16T22:48:41.467Z,48.90
2023-04-16T22:51:32.934Z,52.30
2023-04-16T22:54:20.357Z,56.53
2023-04-16T22:57:08.302Z,54.60
2023-04-16T22:59:56.298Z,48.30
2023-04-16T23:02:44.641Z,46.10
2023-04-16T23:05:34.745Z,54.15
2023-04-16T23:08:22.404Z,51.65
2023-04-16T23:11:10.213Z,54.22
2023-04-16T23:13:57.310Z,48.60
2023-04-16T23:16:44.596Z,45.55
2023-04-16T23:19:39.738Z,52.97
2023-04-16T23:22:28.829Z,48.15
2023-04-16T23:25:16.206Z,44.90
2023-04-16T23:28:09.652Z,48.25
2023-04-16T23:30:57.356Z,49.88
2023-04-16T23:33:44.552Z,51.35
2023-04-16T23:36:35.453Z,49.72
2023-04-16T23:39:24.223Z,49.83
2023-04-16T23:42:11.665Z,43.42
2023-04-16T23:45:01.719Z,43.30
2023-04-16T23:47:49.103Z,42.10
2023-04-16T23:50:36.687Z,43.13
2023-04-16T23:53:24.422Z,53.67
2023-04-16T23:56:15.469Z,40.95
2023-04-16T23:59:03.399Z,43.45
